createdAt,value
2018-07-20T00:00:04.539Z,18.81
2018-07-20T00:01:04.505Z,18.86
2018-07-20T00:02:04.551Z,18.86
2018-07-20T00:03:04.499Z,18.83
2018-07-20T00:04:04.472Z,18.82
2018-07-20T00:05:04.459Z,18.83
2018-07-20T00:06:04.448Z,18.78
2018-07-20T00:07:04.631Z,18.76
2018-07-20T00:08:04.445Z,18.76
2018-07-20T00:09:04.430Z,18.75
2018-07-20T00:10:04.407Z,18.76
2018-07-20T00:11:04.402Z,18.70
2018-07-20T00:12:04.410Z,18.79
2018-07-20T00:13:04.422Z,18.75
2018-07-20T00:14:04.367Z,18.75
2018-07-20T00:15:04.386Z,18.76
2018-07-20T00:16:04.340Z,18.76
2018-07-20T00:17:04.334Z,18.78
2018-07-20T00:18:04.332Z,18.74
2018-07-20T00:19:04.341Z,18.75
2018-07-20T00:20:04.318Z,18.68
2018-07-20T00:21:04.331Z,18.75
2018-07-20T00:22:04.353Z,18.68
2018-07-20T00:23:04.266Z,18.66
2018-07-20T00:24:04.285Z,18.68
2018-07-20T00:25:04.244Z,18.61
2018-07-20T00:26:05.152Z,18.70
2018-07-20T00:27:04.221Z,18.61
2018-07-20T00:28:04.209Z,18.64
2018-07-20T00:29:04.243Z,18.64
2018-07-20T00:30:04.195Z,18.68
2018-07-20T00:31:04.187Z,18.68
2018-07-20T00:32:04.182Z,18.68
2018-07-20T00:33:04.158Z,18.68
2018-07-20T00:34:04.160Z,18.67
2018-07-20T00:35:04.179Z,18.70
2018-07-20T00:36:04.230Z,18.71
2018-07-20T00:37:04.113Z,18.71
2018-07-20T00:38:04.107Z,18.71
2018-07-20T00:39:04.145Z,18.76
2018-07-20T00:40:04.082Z,18.67
2018-07-20T00:41:04.093Z,18.74
2018-07-20T00:42:04.065Z,18.63
2018-07-20T00:43:04.051Z,18.63
2018-07-20T00:44:04.042Z,18.68
2018-07-20T00:45:04.084Z,18.64
2018-07-20T00:46:04.014Z,18.67
2018-07-20T00:47:04.005Z,18.68
2018-07-20T00:48:04.668Z,18.66
2018-07-20T00:49:03.988Z,18.70
2018-07-20T00:50:03.975Z,18.71
2018-07-20T00:51:03.997Z,18.81
2018-07-20T00:52:03.952Z,18.63
2018-07-20T00:53:03.939Z,18.61
2018-07-20T00:54:03.939Z,18.68
2018-07-20T00:55:03.936Z,18.63
2018-07-20T00:56:03.963Z,18.64
2018-07-20T00:57:03.900Z,18.70
2018-07-20T00:58:03.889Z,18.68
2018-07-20T00:59:03.879Z,18.66
2018-07-20T01:00:03.864Z,18.58
2018-07-20T01:01:03.890Z,18.52
2018-07-20T01:02:03.860Z,18.67
2018-07-20T01:03:03.840Z,18.63
2018-07-20T01:04:03.844Z,18.61
2018-07-20T01:05:03.818Z,18.56
2018-07-20T01:06:03.851Z,18.58
2018-07-20T01:07:03.816Z,18.57
2018-07-20T01:08:03.775Z,18.57
2018-07-20T01:09:03.796Z,18.58
2018-07-20T01:10:03.756Z,18.60
2018-07-20T01:11:03.793Z,18.61
2018-07-20T01:12:03.739Z,18.61
2018-07-20T01:13:03.747Z,18.58
2018-07-20T01:14:03.774Z,18.56
2018-07-20T01:15:03.722Z,18.60
2018-07-20T01:16:03.704Z,18.56
2018-07-20T01:17:03.737Z,18.60
2018-07-20T01:18:03.668Z,18.67
2018-07-20T01:19:03.666Z,18.57
2018-07-20T01:20:03.652Z,18.54
2018-07-20T01:21:03.663Z,18.51
2018-07-20T01:22:03.685Z,18.45
2018-07-20T01:23:03.615Z,18.43
2018-07-20T01:24:03.616Z,18.28
2018-07-20T01:25:03.603Z,18.41
2018-07-20T01:26:06.617Z,18.36
2018-07-20T01:27:03.611Z,18.34
2018-07-20T01:28:03.602Z,18.28
2018-07-20T01:29:03.548Z,18.23
2018-07-20T01:30:03.548Z,18.23
2018-07-20T01:31:03.563Z,18.24
2018-07-20T01:32:03.526Z,18.13
2018-07-20T01:33:03.739Z,18.13
2018-07-20T01:34:03.503Z,18.06
2018-07-20T01:35:03.491Z,17.99
2018-07-20T01:36:03.489Z,17.94
2018-07-20T01:37:03.469Z,17.99
2018-07-20T01:38:03.506Z,17.84
2018-07-20T01:39:03.443Z,17.88
2018-07-20T01:40:03.440Z,17.81
2018-07-20T01:41:03.423Z,17.81
2018-07-20T01:42:03.414Z,17.69
2018-07-20T01:43:03.410Z,17.72
2018-07-20T01:44:03.429Z,17.66
2018-07-20T01:45:03.391Z,17.63
2018-07-20T01:46:03.383Z,17.57
2018-07-20T01:47:03.387Z,17.49
2018-07-20T01:48:03.345Z,17.46
2018-07-20T01:49:03.383Z,17.53
2018-07-20T01:50:03.377Z,17.38
2018-07-20T01:51:03.319Z,17.38
2018-07-20T01:52:03.316Z,17.43
2018-07-20T01:53:03.293Z,17.45
2018-07-20T01:54:03.283Z,17.41
2018-07-20T01:55:03.310Z,17.41
2018-07-20T01:56:03.257Z,17.47
2018-07-20T01:57:03.255Z,17.39
2018-07-20T01:58:03.237Z,17.38
2018-07-20T01:59:03.238Z,17.39
2018-07-20T02:00:03.289Z,17.41
2018-07-20T02:01:03.206Z,17.30
2018-07-20T02:02:03.196Z,17.24
2018-07-20T02:03:03.187Z,17.25
2018-07-20T02:04:03.172Z,17.24
2018-07-20T02:05:03.178Z,17.27
2018-07-20T02:06:03.184Z,17.22
2018-07-20T02:07:03.141Z,17.34
2018-07-20T02:08:03.145Z,17.25
2018-07-20T02:09:03.121Z,17.27
2018-07-20T02:10:03.108Z,17.24
2018-07-20T02:11:03.142Z,17.27
2018-07-20T02:12:03.099Z,17.30
2018-07-20T02:13:03.110Z,17.30
2018-07-20T02:14:03.082Z,17.25
2018-07-20T02:15:03.068Z,17.22
2018-07-20T02:16:03.220Z,17.20
2018-07-20T02:17:03.069Z,17.27
2018-07-20T02:18:03.032Z,17.19
2018-07-20T02:19:03.029Z,17.22
2018-07-20T02:20:03.009Z,17.20
2018-07-20T02:21:02.991Z,17.20
2018-07-20T02:22:03.018Z,17.17
2018-07-20T02:23:02.973Z,17.17
2018-07-20T02:24:02.969Z,17.14
2018-07-20T02:25:02.946Z,17.20
2018-07-20T02:26:02.952Z,17.14
2018-07-20T02:27:02.951Z,17.09
2018-07-20T02:28:03.223Z,17.20
2018-07-20T02:29:02.915Z,17.24
2018-07-20T02:30:02.901Z,17.24
2018-07-20T02:31:02.909Z,17.27
2018-07-20T02:32:02.870Z,17.20
2018-07-20T02:33:02.892Z,17.27
2018-07-20T02:34:02.848Z,17.22
2018-07-20T02:35:02.841Z,17.30
2018-07-20T02:36:02.842Z,17.16
2018-07-20T02:37:02.821Z,17.20
2018-07-20T02:38:02.989Z,17.24
2018-07-20T02:39:02.809Z,17.14
2018-07-20T02:40:02.782Z,17.17
2018-07-20T02:41:02.775Z,17.14
2018-07-20T02:42:02.761Z,17.22
2018-07-20T02:43:02.754Z,17.17
2018-07-20T02:44:02.776Z,17.13
2018-07-20T02:45:02.732Z,17.17
2018-07-20T02:46:02.722Z,17.13
2018-07-20T02:47:02.706Z,17.14
2018-07-20T02:48:02.699Z,17.14
2018-07-20T02:49:02.736Z,17.19
2018-07-20T02:50:02.674Z,17.19
2018-07-20T02:51:02.665Z,17.10
2018-07-20T02:52:02.672Z,17.16
2018-07-20T02:53:02.651Z,17.20
2018-07-20T02:54:02.637Z,17.12
2018-07-20T02:55:02.656Z,17.17
2018-07-20T02:56:02.607Z,17.10
2018-07-20T02:57:02.624Z,17.10
2018-07-20T02:58:02.632Z,17.16
2018-07-20T02:59:02.588Z,17.06
2018-07-20T03:00:02.738Z,17.12
2018-07-20T03:01:02.557Z,17.12
2018-07-20T03:02:02.543Z,17.17
2018-07-20T03:03:02.539Z,17.16
2018-07-20T03:04:02.524Z,17.13
2018-07-20T03:05:02.719Z,17.13
2018-07-20T03:06:02.500Z,17.14
2018-07-20T03:07:02.488Z,17.14
2018-07-20T03:08:02.482Z,17.17
2018-07-20T03:09:02.487Z,17.12
2018-07-20T03:10:02.459Z,17.16
2018-07-20T03:11:02.503Z,17.14
2018-07-20T03:12:02.458Z,17.12
2018-07-20T03:13:02.425Z,17.14
2018-07-20T03:14:02.426Z,17.13
2018-07-20T03:15:02.405Z,17.14
2018-07-20T03:16:02.715Z,17.12
2018-07-20T03:17:02.389Z,17.10
2018-07-20T03:18:02.369Z,17.16
2018-07-20T03:19:02.359Z,17.12
2018-07-20T03:20:02.344Z,17.16
2018-07-20T03:21:02.384Z,17.13
2018-07-20T03:22:02.373Z,17.14
2018-07-20T03:23:02.315Z,17.22
2018-07-20T03:24:02.302Z,17.17
2018-07-20T03:25:02.291Z,17.17
2018-07-20T03:26:02.282Z,17.25
2018-07-20T03:27:02.341Z,17.28
2018-07-20T03:28:02.272Z,17.28
2018-07-20T03:29:02.250Z,17.19
2018-07-20T03:30:02.240Z,17.25
2018-07-20T03:31:02.268Z,17.20
2018-07-20T03:32:02.222Z,17.20
2018-07-20T03:33:02.247Z,17.12
2018-07-20T03:34:02.201Z,17.17
2018-07-20T03:35:02.215Z,17.12
2018-07-20T03:36:02.176Z,17.13
2018-07-20T03:37:02.177Z,17.14
2018-07-20T03:38:02.180Z,17.14
2018-07-20T03:39:02.146Z,17.17
2018-07-20T03:40:02.146Z,17.13
2018-07-20T03:41:02.120Z,17.12
2018-07-20T03:42:02.119Z,17.10
2018-07-20T03:43:02.273Z,17.13
2018-07-20T03:44:02.086Z,17.16
2018-07-20T03:45:02.090Z,17.16
2018-07-20T03:46:02.062Z,17.14
2018-07-20T03:47:02.051Z,17.13
2018-07-20T03:48:02.058Z,17.12
2018-07-20T03:49:02.129Z,17.16
2018-07-20T03:50:02.015Z,17.16
2018-07-20T03:51:02.009Z,17.16
2018-07-20T03:52:02.012Z,17.12
2018-07-20T03:53:01.995Z,17.10
2018-07-20T03:54:01.971Z,17.14
2018-07-20T03:55:01.993Z,17.17
2018-07-20T03:56:01.955Z,17.19
2018-07-20T03:57:01.943Z,17.13
2018-07-20T03:58:01.939Z,17.14
2018-07-20T03:59:01.915Z,17.12
2018-07-20T04:00:02.216Z,17.14
2018-07-20T04:01:01.893Z,17.14
2018-07-20T04:02:01.894Z,17.13
2018-07-20T04:03:01.877Z,17.13
2018-07-20T04:04:01.860Z,17.14
2018-07-20T04:05:01.905Z,17.14
2018-07-20T04:06:01.861Z,17.17
2018-07-20T04:07:01.828Z,17.22
2018-07-20T04:08:01.838Z,17.16
2018-07-20T04:09:01.825Z,17.24
2018-07-20T04:10:01.797Z,17.16
2018-07-20T04:11:01.875Z,17.16
2018-07-20T04:12:01.778Z,17.19
2018-07-20T04:13:01.768Z,17.16
2018-07-20T04:14:01.752Z,17.20
2018-07-20T04:15:01.750Z,17.14
2018-07-20T04:16:01.883Z,17.13
2018-07-20T04:17:01.720Z,17.13
2018-07-20T04:18:01.715Z,17.19
2018-07-20T04:19:01.712Z,17.01
2018-07-20T04:20:01.694Z,16.98
2018-07-20T04:21:01.682Z,16.99
2018-07-20T04:22:01.698Z,17.06
2018-07-20T04:23:01.661Z,17.10
2018-07-20T04:24:01.640Z,17.04
2018-07-20T04:25:01.658Z,17.10
2018-07-20T04:26:01.623Z,17.13
2018-07-20T04:27:01.656Z,17.16
2018-07-20T04:28:01.601Z,17.19
2018-07-20T04:29:01.590Z,17.19
2018-07-20T04:30:01.578Z,17.16
2018-07-20T04:31:01.580Z,17.14
2018-07-20T04:32:01.725Z,17.19
2018-07-20T04:33:01.543Z,17.22
2018-07-20T04:34:01.535Z,17.19
2018-07-20T04:35:01.527Z,17.22
2018-07-20T04:36:01.515Z,17.28
2018-07-20T04:37:01.499Z,17.25
2018-07-20T04:38:01.524Z,17.25
2018-07-20T04:39:01.481Z,17.30
2018-07-20T04:40:01.466Z,17.28
2018-07-20T04:41:01.483Z,17.38
2018-07-20T04:42:01.451Z,17.35
2018-07-20T04:43:01.563Z,17.35
2018-07-20T04:44:01.438Z,17.38
2018-07-20T04:45:01.410Z,17.43
2018-07-20T04:46:01.407Z,17.54
2018-07-20T04:47:01.398Z,17.49
2018-07-20T04:48:01.379Z,17.50
2018-07-20T04:49:01.752Z,17.54
2018-07-20T04:50:01.493Z,17.62
2018-07-20T04:51:01.347Z,17.62
2018-07-20T04:52:01.342Z,17.65
2018-07-20T04:53:01.364Z,17.69
2018-07-20T04:54:01.350Z,17.69
2018-07-20T04:55:01.305Z,17.68
2018-07-20T04:56:01.309Z,17.71
2018-07-20T04:57:01.281Z,17.75
2018-07-20T04:58:01.283Z,17.73
2018-07-20T04:59:01.633Z,17.81
2018-07-20T05:00:01.249Z,17.75
2018-07-20T05:01:01.249Z,17.87
2018-07-20T05:02:01.251Z,17.81
2018-07-20T05:03:01.220Z,17.83
2018-07-20T05:04:01.208Z,17.78
2018-07-20T05:05:01.231Z,17.87
2018-07-20T05:06:01.291Z,17.87
2018-07-20T05:07:01.181Z,17.91
2018-07-20T05:08:01.193Z,17.83
2018-07-20T05:09:01.157Z,17.93
2018-07-20T05:10:01.207Z,17.91
2018-07-20T05:11:01.129Z,17.97
2018-07-20T05:12:01.120Z,17.99
2018-07-20T05:13:01.113Z,17.94
2018-07-20T05:14:01.117Z,18.02
2018-07-20T05:15:01.106Z,17.96
2018-07-20T05:16:01.140Z,17.96
2018-07-20T05:17:01.099Z,18.03
2018-07-20T05:18:01.072Z,18.13
2018-07-20T05:19:01.049Z,18.13
2018-07-20T05:20:01.089Z,17.96
2018-07-20T05:21:01.064Z,17.93
2018-07-20T05:22:01.029Z,17.93
2018-07-20T05:23:01.010Z,18.05
2018-07-20T05:24:01.013Z,18.01
2018-07-20T05:25:00.988Z,18.01
2018-07-20T05:26:01.011Z,18.12
2018-07-20T05:27:01.005Z,18.24
2018-07-20T05:28:00.996Z,18.23
2018-07-20T05:29:00.945Z,18.26
2018-07-20T05:30:00.929Z,18.38
2018-07-20T05:31:00.997Z,18.38
2018-07-20T05:32:00.947Z,18.51
2018-07-20T05:33:00.895Z,18.56
2018-07-20T05:34:00.887Z,18.49
2018-07-20T05:35:01.004Z,18.61
2018-07-20T05:36:00.863Z,18.57
2018-07-20T05:37:00.856Z,18.67
2018-07-20T05:38:00.907Z,18.71
2018-07-20T05:39:00.833Z,18.82
2018-07-20T05:40:00.829Z,18.89
2018-07-20T05:41:00.807Z,18.93
2018-07-20T05:42:00.798Z,18.89
2018-07-20T05:43:00.841Z,19.05
2018-07-20T05:44:00.810Z,19.09
2018-07-20T05:45:00.772Z,19.07
2018-07-20T05:46:00.767Z,19.15
2018-07-20T05:47:00.762Z,19.13
2018-07-20T05:48:00.733Z,19.24
2018-07-20T05:49:00.752Z,19.22
2018-07-20T05:50:00.718Z,19.27
2018-07-20T05:51:00.696Z,19.34
2018-07-20T05:52:00.709Z,19.27
2018-07-20T05:53:00.673Z,19.31
2018-07-20T05:54:00.708Z,19.23
2018-07-20T05:55:00.673Z,19.27
2018-07-20T05:56:00.647Z,19.41
2018-07-20T05:57:00.701Z,19.45
2018-07-20T05:58:00.627Z,19.44
2018-07-20T05:59:00.655Z,19.54
2018-07-20T06:00:00.602Z,19.64
2018-07-20T06:01:00.591Z,19.70
2018-07-20T06:02:00.587Z,19.79
2018-07-20T06:03:00.562Z,19.84
2018-07-20T06:04:00.581Z,19.89
2018-07-20T06:05:00.576Z,19.97
2018-07-20T06:06:00.538Z,20.02
2018-07-20T06:07:00.576Z,20.00
2018-07-20T06:08:00.510Z,20.14
2018-07-20T06:09:00.509Z,20.25
2018-07-20T06:10:00.536Z,20.17
2018-07-20T06:11:00.501Z,20.23
2018-07-20T06:12:00.483Z,20.36
2018-07-20T06:13:00.474Z,20.36
2018-07-20T06:14:00.448Z,20.42
2018-07-20T06:15:00.432Z,20.52
2018-07-20T06:16:00.460Z,20.50
2018-07-20T06:17:00.415Z,20.61
2018-07-20T06:18:00.401Z,20.71
2018-07-20T06:19:00.401Z,20.79
2018-07-20T06:20:00.375Z,20.83
2018-07-20T06:21:00.408Z,20.79
2018-07-20T06:22:00.361Z,20.75
2018-07-20T06:23:00.376Z,20.95
2018-07-20T06:24:00.357Z,21.03
2018-07-20T06:25:00.327Z,21.03
2018-07-20T06:26:00.383Z,21.10
2018-07-20T06:27:00.305Z,21.19
2018-07-20T06:28:00.301Z,21.26
2018-07-20T06:29:00.291Z,21.44
2018-07-20T06:30:00.272Z,21.40
2018-07-20T06:31:00.260Z,21.45
2018-07-20T06:32:00.309Z,21.50
2018-07-20T06:33:00.237Z,21.43
2018-07-20T06:34:00.237Z,21.40
2018-07-20T06:35:00.230Z,21.41
2018-07-20T06:36:00.218Z,21.48
2018-07-20T06:37:00.195Z,21.53
2018-07-20T06:38:00.227Z,21.50
2018-07-20T06:39:00.172Z,21.51
2018-07-20T06:40:00.166Z,21.51
2018-07-20T06:41:00.170Z,21.65
2018-07-20T06:42:00.186Z,21.62
2018-07-20T06:43:00.127Z,21.59
2018-07-20T06:44:00.128Z,21.60
2018-07-20T06:45:00.108Z,21.65
2018-07-20T06:46:00.110Z,21.85
2018-07-20T06:47:00.129Z,21.80
2018-07-20T06:48:00.114Z,21.81
2018-07-20T06:49:00.067Z,21.77
2018-07-20T06:50:00.053Z,21.69
2018-07-20T06:51:00.045Z,21.66
2018-07-20T06:52:00.057Z,21.77
2018-07-20T06:53:00.054Z,21.84
2018-07-20T06:54:00.015Z,21.81
2018-07-20T06:54:59.998Z,21.88
2018-07-20T06:56:00.009Z,21.85
2018-07-20T06:56:59.978Z,21.98
2018-07-20T06:58:00.036Z,22.01
2018-07-20T06:58:59.953Z,22.15
2018-07-20T06:59:59.962Z,22.36
2018-07-20T07:00:59.952Z,22.33
2018-07-20T07:01:59.923Z,22.28
2018-07-20T07:02:59.924Z,22.31
2018-07-20T07:03:59.937Z,22.40
2018-07-20T07:04:59.894Z,22.48
2018-07-20T07:05:59.890Z,22.48
2018-07-20T07:07:00.059Z,22.58
2018-07-20T07:07:59.861Z,22.59
2018-07-20T07:08:59.995Z,22.73
2018-07-20T07:09:59.844Z,22.81
2018-07-20T07:10:59.871Z,22.81
2018-07-20T07:11:59.841Z,22.95
2018-07-20T07:12:59.819Z,22.91
2018-07-20T07:13:59.796Z,22.85
2018-07-20T07:14:59.929Z,22.89
2018-07-20T07:15:59.796Z,22.86
2018-07-20T07:16:59.764Z,22.86
2018-07-20T07:17:59.754Z,22.83
2018-07-20T07:18:59.747Z,22.93
2018-07-20T07:19:59.777Z,22.88
2018-07-20T07:20:59.722Z,22.95
2018-07-20T07:21:59.713Z,23.14
2018-07-20T07:22:59.703Z,23.26
2018-07-20T07:23:59.689Z,23.26
2018-07-20T07:24:59.861Z,23.29
2018-07-20T07:25:59.789Z,23.25
2018-07-20T07:26:59.678Z,23.42
2018-07-20T07:27:59.650Z,23.44
2018-07-20T07:28:59.635Z,23.66
2018-07-20T07:29:59.630Z,23.79
2018-07-20T07:30:59.742Z,23.98
2018-07-20T07:31:59.607Z,24.03
2018-07-20T07:32:59.598Z,24.16
2018-07-20T07:33:59.586Z,24.33
2018-07-20T07:34:59.595Z,24.47
2018-07-20T07:35:59.745Z,24.48
2018-07-20T07:36:59.548Z,24.51
2018-07-20T07:37:59.545Z,24.68
2018-07-20T07:38:59.537Z,24.84
2018-07-20T07:39:59.521Z,24.85
2018-07-20T07:40:59.509Z,24.91
2018-07-20T07:41:59.564Z,25.12
2018-07-20T07:42:59.503Z,25.30
2018-07-20T07:43:59.482Z,25.55
2018-07-20T07:44:59.474Z,25.85
2018-07-20T07:45:59.454Z,25.95
2018-07-20T07:46:59.494Z,25.82
2018-07-20T07:47:59.433Z,25.92
2018-07-20T07:48:59.424Z,25.89
2018-07-20T07:49:59.416Z,25.93
2018-07-20T07:50:59.400Z,25.83
2018-07-20T07:51:59.394Z,26.00
2018-07-20T07:52:59.463Z,26.05
2018-07-20T07:53:59.370Z,26.39
2018-07-20T07:54:59.370Z,26.60
2018-07-20T07:55:59.355Z,26.71
2018-07-20T07:56:59.336Z,26.88
2018-07-20T07:57:59.365Z,26.78
2018-07-20T07:58:59.443Z,26.83
2018-07-20T07:59:59.301Z,26.93
2018-07-20T08:00:59.307Z,26.98
2018-07-20T08:01:59.303Z,27.17
2018-07-20T08:02:59.320Z,27.27
2018-07-20T08:03:59.285Z,27.37
2018-07-20T08:04:59.255Z,27.26
2018-07-20T08:05:59.245Z,27.27
2018-07-20T08:06:59.251Z,27.42
2018-07-20T08:07:59.223Z,27.38
2018-07-20T08:08:59.247Z,27.50
2018-07-20T08:09:59.447Z,27.53
2018-07-20T08:10:59.187Z,27.47
2018-07-20T08:11:59.194Z,27.54
2018-07-20T08:12:59.186Z,27.73
2018-07-20T08:13:59.279Z,27.79
2018-07-20T08:14:59.153Z,27.87
2018-07-20T08:15:59.142Z,28.09
2018-07-20T08:16:59.143Z,28.12
2018-07-20T08:17:59.115Z,28.19
2018-07-20T08:18:59.391Z,28.06
2018-07-20T08:19:59.206Z,28.46
2018-07-20T08:20:59.094Z,28.34
2018-07-20T08:21:59.079Z,27.91
2018-07-20T08:22:59.099Z,27.88
2018-07-20T08:23:59.053Z,27.60
2018-07-20T08:24:59.100Z,27.47
2018-07-20T08:25:59.036Z,27.22
2018-07-20T08:26:59.023Z,27.19
2018-07-20T08:27:59.016Z,27.90
2018-07-20T08:28:59.005Z,28.65
2018-07-20T08:29:58.995Z,29.52
2018-07-20T08:30:59.020Z,29.98
2018-07-20T08:31:58.981Z,30.56
2018-07-20T08:32:58.965Z,31.02
2018-07-20T08:33:58.955Z,31.48
2018-07-20T08:34:58.957Z,32.02
2018-07-20T08:35:59.127Z,32.38
2018-07-20T08:36:58.926Z,32.79
2018-07-20T08:37:58.956Z,32.72
2018-07-20T08:38:58.904Z,32.39
2018-07-20T08:39:58.900Z,32.69
2018-07-20T08:40:58.887Z,33.04
2018-07-20T08:41:58.912Z,33.52
2018-07-20T08:42:58.862Z,33.67
2018-07-20T08:43:58.861Z,34.26
2018-07-20T08:44:58.845Z,34.97
2018-07-20T08:45:58.838Z,35.16
2018-07-20T08:46:58.876Z,35.04
2018-07-20T08:47:58.831Z,34.56
2018-07-20T08:48:58.802Z,34.41
2018-07-20T08:49:58.887Z,35.14
2018-07-20T08:50:58.786Z,35.50
2018-07-20T08:51:58.825Z,35.84
2018-07-20T08:52:58.770Z,36.04
2018-07-20T08:53:58.810Z,35.97
2018-07-20T08:54:58.762Z,36.19
2018-07-20T08:55:58.764Z,36.25
2018-07-20T08:56:58.729Z,36.40
2018-07-20T08:57:58.767Z,36.78
2018-07-20T08:58:58.739Z,37.20
2018-07-20T08:59:58.708Z,37.17
2018-07-20T09:00:58.693Z,36.91
2018-07-20T09:01:58.756Z,36.66
2018-07-20T09:02:58.871Z,36.59
2018-07-20T09:03:58.661Z,36.38
2018-07-20T09:04:58.659Z,35.79
2018-07-20T09:05:58.660Z,34.76
2018-07-20T09:06:58.672Z,34.86
2018-07-20T09:07:58.691Z,34.72
2018-07-20T09:08:58.712Z,35.02
2018-07-20T09:09:58.627Z,35.51
2018-07-20T09:10:58.612Z,35.90
2018-07-20T09:11:58.603Z,35.66
2018-07-20T09:12:58.581Z,35.79
2018-07-20T09:13:58.759Z,36.20
2018-07-20T09:14:58.566Z,36.97
2018-07-20T09:15:58.583Z,37.83
2018-07-20T09:16:58.572Z,38.18
2018-07-20T09:17:58.548Z,38.82
2018-07-20T09:18:58.678Z,39.38
2018-07-20T09:19:58.571Z,39.88
2018-07-20T09:20:58.570Z,39.94
2018-07-20T09:21:58.518Z,40.14
2018-07-20T09:22:58.509Z,39.57
2018-07-20T09:23:58.497Z,39.33
2018-07-20T09:24:58.538Z,39.31
2018-07-20T09:25:58.470Z,39.77
2018-07-20T09:26:58.463Z,39.96
2018-07-20T09:27:58.455Z,40.25
2018-07-20T09:28:58.463Z,40.33
2018-07-20T09:29:58.475Z,40.26
2018-07-20T09:30:58.420Z,40.59
2018-07-20T09:31:58.430Z,40.84
2018-07-20T09:32:58.411Z,41.21
2018-07-20T09:33:58.404Z,41.55
2018-07-20T09:34:58.399Z,41.74
2018-07-20T09:35:58.416Z,42.19
2018-07-20T09:36:58.369Z,42.65
2018-07-20T09:37:58.369Z,42.67
2018-07-20T09:38:58.348Z,42.42
2018-07-20T09:39:58.392Z,42.74
2018-07-20T09:40:58.485Z,42.84
2018-07-20T09:41:58.328Z,42.06
2018-07-20T09:42:58.321Z,42.23
2018-07-20T09:43:58.313Z,42.40
2018-07-20T09:44:58.312Z,42.26
2018-07-20T09:45:58.303Z,41.55
2018-07-20T09:46:58.422Z,40.71
2018-07-20T09:47:58.283Z,40.99
2018-07-20T09:48:58.376Z,41.13
2018-07-20T09:49:58.282Z,41.08
2018-07-20T09:50:58.253Z,40.23
2018-07-20T09:51:58.279Z,40.45
2018-07-20T09:52:58.239Z,40.86
2018-07-20T09:53:58.238Z,40.77
2018-07-20T09:54:58.416Z,41.21
2018-07-20T09:55:58.223Z,41.69
2018-07-20T09:56:58.285Z,42.50
2018-07-20T09:57:58.217Z,43.33
2018-07-20T09:58:58.210Z,43.94
2018-07-20T09:59:58.188Z,44.35
2018-07-20T10:00:58.227Z,44.71
2018-07-20T10:01:58.174Z,44.76
2018-07-20T10:02:58.381Z,45.18
2018-07-20T10:03:58.158Z,45.81
2018-07-20T10:04:58.163Z,46.22
2018-07-20T10:05:58.144Z,46.02
2018-07-20T10:06:58.147Z,45.27
2018-07-20T10:07:58.133Z,43.86
2018-07-20T10:08:58.294Z,42.74
2018-07-20T10:09:58.130Z,43.06
2018-07-20T10:10:58.100Z,43.71
2018-07-20T10:11:58.098Z,43.66
2018-07-20T10:12:58.108Z,43.63
2018-07-20T10:13:58.110Z,42.84
2018-07-20T10:14:58.074Z,42.81
2018-07-20T10:15:58.114Z,42.63
2018-07-20T10:16:58.063Z,43.02
2018-07-20T10:17:58.053Z,43.69
2018-07-20T10:18:58.152Z,44.43
2018-07-20T10:19:58.039Z,44.64
2018-07-20T10:20:58.050Z,44.76
2018-07-20T10:21:58.032Z,45.26
2018-07-20T10:22:58.016Z,45.05
2018-07-20T10:23:58.013Z,45.37
2018-07-20T10:24:58.034Z,45.71
2018-07-20T10:25:58.000Z,45.94
2018-07-20T10:26:58.015Z,45.33
2018-07-20T10:27:57.985Z,44.65
2018-07-20T10:28:57.975Z,44.34
2018-07-20T10:29:58.289Z,44.17
2018-07-20T10:30:57.965Z,45.07
2018-07-20T10:31:57.980Z,44.83
2018-07-20T10:32:57.960Z,44.90
2018-07-20T10:33:57.957Z,44.66
2018-07-20T10:34:57.932Z,45.15
2018-07-20T10:35:57.967Z,45.33
2018-07-20T10:36:57.930Z,45.43
2018-07-20T10:37:57.910Z,45.60
2018-07-20T10:38:57.915Z,45.99
2018-07-20T10:39:57.899Z,46.53
2018-07-20T10:40:57.929Z,46.63
2018-07-20T10:41:57.881Z,46.97
2018-07-20T10:42:57.915Z,47.61
2018-07-20T10:43:57.874Z,47.59
2018-07-20T10:44:57.866Z,47.29
2018-07-20T10:45:58.036Z,46.56
2018-07-20T10:46:57.907Z,46.07
2018-07-20T10:47:57.855Z,46.40
2018-07-20T10:48:57.834Z,46.56
2018-07-20T10:49:57.829Z,46.81
2018-07-20T10:50:57.837Z,47.25
2018-07-20T10:51:57.898Z,46.34
2018-07-20T10:52:57.878Z,45.90
2018-07-20T10:53:57.815Z,45.52
2018-07-20T10:54:57.800Z,45.93
2018-07-20T10:55:57.799Z,46.53
2018-07-20T10:56:57.836Z,46.95
2018-07-20T10:57:57.778Z,47.19
2018-07-20T10:58:57.783Z,46.81
2018-07-20T10:59:57.771Z,45.79
2018-07-20T11:00:57.760Z,45.42
2018-07-20T11:01:57.768Z,45.42
2018-07-20T11:02:57.883Z,45.79
2018-07-20T11:03:57.745Z,45.99
2018-07-20T11:04:57.739Z,45.62
2018-07-20T11:05:57.729Z,44.90
2018-07-20T11:06:57.728Z,44.24
2018-07-20T11:07:57.758Z,44.46
2018-07-20T11:08:57.845Z,43.94
2018-07-20T11:09:57.706Z,44.13
2018-07-20T11:10:57.713Z,43.94
2018-07-20T11:11:57.690Z,44.24
2018-07-20T11:12:57.685Z,44.45
2018-07-20T11:13:57.718Z,43.95
2018-07-20T11:14:57.679Z,43.12
2018-07-20T11:15:57.669Z,43.54
2018-07-20T11:16:57.659Z,43.76
2018-07-20T11:17:57.661Z,44.19
2018-07-20T11:18:57.691Z,44.43
2018-07-20T11:19:57.647Z,44.70
2018-07-20T11:20:57.632Z,45.16
2018-07-20T11:21:57.634Z,45.68
2018-07-20T11:22:57.625Z,46.03
2018-07-20T11:23:57.647Z,46.37
2018-07-20T11:24:57.613Z,46.86
2018-07-20T11:25:57.619Z,47.21
2018-07-20T11:26:57.595Z,47.63
2018-07-20T11:27:57.595Z,47.78
2018-07-20T11:28:57.845Z,47.73
2018-07-20T11:29:57.583Z,47.47
2018-07-20T11:30:57.573Z,46.54
2018-07-20T11:31:57.569Z,46.79
2018-07-20T11:32:57.567Z,46.37
2018-07-20T11:33:57.563Z,46.45
2018-07-20T11:34:57.592Z,46.94
2018-07-20T11:35:57.540Z,47.17
2018-07-20T11:36:57.541Z,47.59
2018-07-20T11:37:57.536Z,47.66
2018-07-20T11:38:57.524Z,47.63
2018-07-20T11:39:57.514Z,47.54
2018-07-20T11:40:57.559Z,47.44
2018-07-20T11:41:57.578Z,46.97
2018-07-20T11:42:57.502Z,46.71
2018-07-20T11:43:57.489Z,46.40
2018-07-20T11:44:57.490Z,46.41
2018-07-20T11:45:57.521Z,46.69
2018-07-20T11:46:57.472Z,46.32
2018-07-20T11:47:57.473Z,45.60
2018-07-20T11:48:57.460Z,44.80
2018-07-20T11:49:57.451Z,44.48
2018-07-20T11:50:57.636Z,44.54
2018-07-20T11:51:57.441Z,44.34
2018-07-20T11:52:57.436Z,43.57
2018-07-20T11:53:57.438Z,43.36
2018-07-20T11:54:57.423Z,43.79
2018-07-20T11:55:57.506Z,43.97
2018-07-20T11:56:57.443Z,43.08
2018-07-20T11:57:57.398Z,41.66
2018-07-20T11:58:57.395Z,40.90
2018-07-20T11:59:57.414Z,40.23
2018-07-20T12:00:57.427Z,39.35
2018-07-20T12:01:57.826Z,38.89
2018-07-20T12:02:57.373Z,38.45
2018-07-20T12:03:57.370Z,38.89
2018-07-20T12:04:57.358Z,38.78
2018-07-20T12:05:57.387Z,39.27
2018-07-20T12:06:57.437Z,40.10
2018-07-20T12:07:57.409Z,40.92
2018-07-20T12:08:57.411Z,41.12
2018-07-20T12:09:57.314Z,41.55
2018-07-20T12:10:57.321Z,42.04
2018-07-20T12:11:57.302Z,42.76
2018-07-20T12:12:57.496Z,43.52
2018-07-20T12:13:57.284Z,43.00
2018-07-20T12:14:57.312Z,42.53
2018-07-20T12:15:57.299Z,42.78
2018-07-20T12:16:57.269Z,43.12
2018-07-20T12:17:57.258Z,43.32
2018-07-20T12:18:57.296Z,43.62
2018-07-20T12:19:57.243Z,43.52
2018-07-20T12:20:57.239Z,43.62
2018-07-20T12:21:57.233Z,43.90
2018-07-20T12:22:57.282Z,44.05
2018-07-20T12:23:57.361Z,43.35
2018-07-20T12:24:57.218Z,43.09
2018-07-20T12:25:57.194Z,42.98
2018-07-20T12:26:57.199Z,43.49
2018-07-20T12:27:57.203Z,43.76
2018-07-20T12:28:57.186Z,43.85
2018-07-20T12:29:57.196Z,43.88
2018-07-20T12:30:57.157Z,43.51
2018-07-20T12:31:57.158Z,42.69
2018-07-20T12:32:57.179Z,41.68
2018-07-20T12:33:57.160Z,39.74
2018-07-20T12:34:57.172Z,37.87
2018-07-20T12:35:57.163Z,36.07
2018-07-20T12:36:57.112Z,35.46
2018-07-20T12:37:57.110Z,34.92
2018-07-20T12:38:57.095Z,35.23
2018-07-20T12:39:57.133Z,35.23
2018-07-20T12:40:57.095Z,35.04
2018-07-20T12:41:57.069Z,35.05
2018-07-20T12:42:57.066Z,34.95
2018-07-20T12:43:57.056Z,34.80
2018-07-20T12:44:57.048Z,34.60
2018-07-20T12:45:57.071Z,34.67
2018-07-20T12:46:57.031Z,34.86
2018-07-20T12:47:57.027Z,35.16
2018-07-20T12:48:57.029Z,35.28
2018-07-20T12:49:57.001Z,35.36
2018-07-20T12:50:57.131Z,35.42
2018-07-20T12:51:56.985Z,35.38